Flight Track Log - Related Links

Times and Time Zones

All times are in EDT time to prevent confusion due to time zone crossing. See the TAM8014 flight status page for this flight to view local times or setup timezone preferences in your user account.

Time Position Orientation Groundspeed Altitude Reporting Facility
EDT Latitude Longitude Course Direction KTS MPH feet Rate Location/Type
Mon 06:44:00 AM -25.3894 -48.3255 220° Southwest  Level Estimated
Mon 06:45:00 AM -25.4588 -48.3929 221° Southwest  Level Estimated
Mon 06:46:00 AM -25.5283 -48.4604 221° Southwest  Level Estimated
Mon 06:47:00 AM -25.5977 -48.5279 221° Southwest  Level Estimated
Mon 06:48:00 AM -25.6671 -48.5955 221° Southwest  Level Estimated
Mon 06:49:00 AM -25.7364 -48.6632 221° Southwest  Level Estimated
Mon 06:50:00 AM -25.8057 -48.7309 221° Southwest  Level Estimated
Mon 06:51:00 AM -25.8750 -48.7988 221° Southwest  Level Estimated
Mon 06:52:00 AM -25.9443 -48.8667 221° Southwest  Level Estimated
Mon 06:53:00 AM -26.0135 -48.9347 221° Southwest  Level Estimated
Mon 06:54:00 AM -26.0827 -49.0028 221° Southwest  Level Estimated
Mon 06:55:00 AM -26.1519 -49.0709 221° Southwest  Level Estimated
Mon 06:56:00 AM -26.2210 -49.1392 222° Southwest  Level Estimated
Mon 06:57:00 AM -26.2901 -49.2075 222° Southwest  Level Estimated
Mon 06:58:00 AM -26.3592 -49.2759 222° Southwest  Level Estimated
Mon 06:59:00 AM -26.4282 -49.3444 222° Southwest  Level Estimated
Mon 07:00:00 AM -26.4972 -49.4130 222° Southwest  Level Estimated
Mon 07:01:00 AM -26.5662 -49.4816 222° Southwest  Level Estimated
Mon 07:02:00 AM -26.6351 -49.5504 222° Southwest  Level Estimated
Mon 07:03:00 AM -26.7040 -49.6192 222° Southwest  Level Estimated
Mon 07:04:00 AM -26.7729 -49.6881 222° Southwest  Level Estimated
Mon 07:05:00 AM -26.8417 -49.7571 222° Southwest  Level Estimated
Mon 07:06:00 AM -26.9105 -49.8262 222° Southwest  Level Estimated
Mon 07:07:00 AM -26.9793 -49.8953 222° Southwest  Level Estimated
Mon 07:08:00 AM -27.0480 -49.9646 222° Southwest  Level Estimated
Mon 07:09:00 AM -27.1167 -50.0339 222° Southwest  Level Estimated
Mon 07:10:00 AM -27.1854 -50.1033 222° Southwest  Level Estimated
Mon 07:11:00 AM -27.2540 -50.1728 222° Southwest  Level Estimated
Mon 07:12:00 AM -27.3226 -50.2424 222° Southwest  Level Estimated
Mon 07:13:00 AM -27.3911 -50.3120 222° Southwest  Level Estimated
Mon 07:14:00 AM -27.4597 -50.3818 222° Southwest  Level Estimated
Mon 07:15:00 AM -27.5282 -50.4516 222° Southwest  Level Estimated
Mon 07:16:00 AM -27.5966 -50.5215 222° Southwest  Level Estimated
Mon 07:17:00 AM -27.6651 -50.5915 222° Southwest  Level Estimated
Mon 07:18:00 AM -27.7334 -50.6617 222° Southwest  Level Estimated
Mon 07:19:00 AM -27.8018 -50.7318 222° Southwest  Level Estimated
Mon 07:20:00 AM -27.8701 -50.8021 222° Southwest  Level Estimated
Mon 07:21:00 AM -27.9384 -50.8725 222° Southwest  Level Estimated
Mon 07:22:00 AM -28.0066 -50.9430 222° Southwest  Level Estimated
Mon 07:23:00 AM -28.0748 -51.0135 222° Southwest  Level Estimated
Mon 07:24:00 AM -28.1430 -51.0841 222° Southwest  Level Estimated
Mon 07:25:00 AM -28.2111 -51.1548 222° Southwest  Level Estimated
Mon 07:26:00 AM -28.2792 -51.2257 222° Southwest  Level Estimated
Mon 07:27:00 AM -28.3473 -51.2966 223° Southwest  Level Estimated
Mon 07:28:00 AM -28.4153 -51.3676 223° Southwest  Level Estimated
Mon 07:29:00 AM -28.4833 -51.4386 223° Southwest  Level Estimated
Mon 07:30:00 AM -28.5513 -51.5098 223° Southwest  Level Estimated
Mon 07:31:00 AM -28.6192 -51.5811 223° Southwest  Level Estimated
Mon 07:32:00 AM -28.6871 -51.6525 223° Southwest  Level Estimated
Mon 07:33:00 AM -28.7549 -51.7239 223° Southwest  Level Estimated
Mon 07:34:00 AM -28.8227 -51.7955 223° Southwest  Level Estimated
Mon 07:35:00 AM -28.8905 -51.8671 223° Southwest  Level Estimated
Mon 07:36:00 AM -28.9582 -51.9389 223° Southwest  Level Estimated
Mon 07:37:00 AM -29.0259 -52.0107 223° Southwest  Level Estimated
Mon 07:38:00 AM -29.0936 -52.0826 223° Southwest  Level Estimated
Mon 07:39:00 AM -29.1612 -52.1546 223° Southwest  Level Estimated
Mon 07:40:00 AM -29.2287 -52.2267 223° Southwest  Level Estimated
Mon 07:41:00 AM -29.2963 -52.2989 223° Southwest  Level Estimated
Mon 07:42:00 AM -29.3638 -52.3712 223° Southwest  Level Estimated
Mon 07:43:00 AM -29.4312 -52.4436 223° Southwest  Level Estimated
Mon 07:44:00 AM -29.4987 -52.5161 223° Southwest  Level Estimated
Mon 07:45:00 AM -29.5660 -52.5887 223° Southwest  Level Estimated
Mon 07:46:00 AM -29.6334 -52.6614 223° Southwest  Level Estimated
Mon 07:47:00 AM -29.7007 -52.7342 223° Southwest  Level Estimated
Mon 07:48:00 AM -29.7679 -52.8071 223° Southwest  Level Estimated
Mon 07:49:00 AM -29.8352 -52.8801 223° Southwest  Level Estimated
Mon 07:50:00 AM -29.9023 -52.9532 223° Southwest  Level Estimated
Mon 07:51:00 AM -29.9695 -53.0263 223° Southwest  Level Estimated
Mon 07:52:00 AM -30.0366 -53.0996 223° Southwest  Level Estimated
Mon 07:53:00 AM -30.1036 -53.1730 223° Southwest  Level Estimated
Mon 07:54:00 AM -30.1707 -53.2465 223° Southwest  Level Estimated
Mon 07:55:00 AM -30.2376 -53.3200 223° Southwest  Level Estimated
Mon 07:56:00 AM -30.3046 -53.3937 224° Southwest  Level Estimated
Mon 07:57:00 AM -30.3715 -53.4675 224° Southwest  Level Estimated
Mon 07:58:00 AM -30.4383 -53.5414 224° Southwest  Level Estimated
Mon 07:59:00 AM -30.5051 -53.6154 224° Southwest  Level Estimated
Mon 08:00:00 AM -30.5719 -53.6894 224° Southwest  Level Estimated
Mon 08:01:00 AM -30.6386 -53.7636 224° Southwest  Level Estimated
Mon 08:02:00 AM -30.7053 -53.8379 224° Southwest  Level Estimated
Mon 08:03:00 AM -30.7719 -53.9123 224° Southwest  Level Estimated
Mon 08:04:00 AM -30.8386 -53.9868 224° Southwest  Level Estimated
Mon 08:05:00 AM -30.9051 -54.0614 224° Southwest  Level Estimated
Mon 08:06:00 AM -30.9716 -54.1361 224° Southwest  Level Estimated
Mon 08:07:00 AM -31.0381 -54.2109 224° Southwest  Level Estimated
Mon 08:08:00 AM -31.1045 -54.2858 224° Southwest  Level Estimated
Mon 08:09:00 AM -31.1709 -54.3608 224° Southwest  Level Estimated
Mon 08:10:00 AM -31.2372 -54.4359 224° Southwest  Level Estimated
Mon 08:11:00 AM -31.3035 -54.5112 224° Southwest  Level Estimated
Mon 08:12:00 AM -31.3698 -54.5865 224° Southwest  Level Estimated
Mon 08:13:00 AM -31.4360 -54.6619 224° Southwest  Level Estimated
Mon 08:14:00 AM -31.5022 -54.7375 224° Southwest  Level Estimated
Mon 08:15:00 AM -31.5683 -54.8131 224° Southwest  Level Estimated
Mon 08:16:00 AM -31.6344 -54.8889 224° Southwest  Level Estimated
Mon 08:17:00 AM -31.7004 -54.9647 224° Southwest  Level Estimated
Mon 08:18:00 AM -31.7664 -55.0407 224° Southwest  Level Estimated
Mon 08:19:00 AM -31.8323 -55.1168 224° Southwest  Level Estimated
Mon 08:20:00 AM -31.8982 -55.1930 224° Southwest  Level Estimated
Mon 08:21:00 AM -31.9641 -55.2693 224° Southwest  Level Estimated
Mon 08:22:00 AM -32.0299 -55.3457 225° Southwest  Level Estimated
Mon 08:23:00 AM -32.0956 -55.4222 225° Southwest  Level Estimated
Mon 08:24:00 AM -32.1614 -55.4988 225° Southwest  Level Estimated
Mon 08:25:00 AM -32.2270 -55.5756 225° Southwest  Level Estimated
Mon 08:26:00 AM -32.2926 -55.6524 225° Southwest  Level Estimated
Mon 08:27:00 AM -32.3582 -55.7294 225° Southwest  Level Estimated
Mon 08:28:00 AM -32.4237 -55.8065 225° Southwest  Level Estimated
Mon 08:29:00 AM -32.4892 -55.8836 225° Southwest  Level Estimated
Mon 08:30:00 AM -32.5546 -55.9609 225° Southwest  Level Estimated
Mon 08:31:00 AM -32.6200 -56.0383 225° Southwest  Level Estimated
Mon 08:32:00 AM -32.6854 -56.1159 225° Southwest  Level Estimated
Mon 08:33:00 AM -32.7507 -56.1935 225° Southwest  Level Estimated
Mon 08:34:00 AM -32.8159 -56.2713 225° Southwest  Level Estimated
Mon 08:35:00 AM -32.8811 -56.3491 225° Southwest  Level Estimated
Mon 08:36:00 AM -32.9463 -56.4271 225° Southwest  Level Estimated
Mon 08:37:00 AM -33.0113 -56.5052 225° Southwest  Level Estimated
Mon 08:38:00 AM -33.0764 -56.5834 225° Southwest  Level Estimated
Mon 08:39:00 AM -33.1414 -56.6617 225° Southwest  Level Estimated
Mon 08:40:00 AM -33.2063 -56.7402 225° Southwest  Level Estimated
Mon 08:41:00 AM -33.2713 -56.8187 225° Southwest  Level Estimated
Mon 08:42:00 AM -33.3361 -56.8974 225° Southwest  Level Estimated
Mon 08:43:00 AM -33.4009 -56.9762 225° Southwest  Level Estimated
Mon 08:44:00 AM -33.4656 -57.0551 225° Southwest  Level Estimated
Mon 08:45:00 AM -33.5303 -57.1341 226° Southwest  Level Estimated
Mon 08:46:00 AM -33.5950 -57.2133 226° Southwest  Level Estimated
Mon 08:47:00 AM -33.6596 -57.2925 226° Southwest  Level Estimated
Mon 08:48:00 AM -33.7242 -57.3719 226° Southwest  Level Estimated
Mon 08:49:00 AM -33.7887 -57.4514 226° Southwest  Level Estimated
Mon 08:50:00 AM -33.8531 -57.5310 226° Southwest  Level Estimated
Mon 08:51:00 AM -33.9175 -57.6108 226° Southwest  Level Estimated
Mon 08:52:00 AM -33.9818 -57.6906 226° Southwest  Level Estimated
Mon 08:53:00 AM -34.0461 -57.7706 226° Southwest  Level Estimated
Mon 08:54:00 AM -34.1104 -57.8507 226° Southwest  Level Estimated
Mon 08:55:00 AM -34.1746 -57.9309 226° Southwest  Level Estimated
Mon 08:56:00 AM -34.2387 -58.0113 226° Southwest  Level Estimated
Mon 08:57:00 AM -34.3028 -58.0918 226° Southwest  Level Estimated
Mon 08:58:00 AM -34.3668 -58.1724 226° Southwest  Level Estimated
Mon 08:59:00 AM -34.4308 -58.2531 226° Southwest  Level Estimated
Mon 09:00:00 AM -34.4947 -58.3339 226° Southwest  Level Estimated
Mon 09:01:00 AM -34.5586 -58.4149 226° Southwest  Level Estimated
Mon 09:02:00 AM -34.5592 -58.4156 226° Southwest  Level Estimated
Mon 09:03:00 AM -34.5592 -58.4156 147° Southeast  Level Estimated
Mon 09:04:00 AM -34.5592 -58.4156 33° Northeast  Level Estimated
Mon 09:05:00 AM -34.5592 -58.4156 147° Southeast  Level Estimated
Mon 09:06:00 AM -34.5592 -58.4156 33° Northeast  Level Estimated
Mon 09:07:00 AM -34.5592 -58.4156 147° Southeast  Level Estimated
Mon 09:08:00 AM -34.5592 -58.4156 33° Northeast  Level Estimated
Mon 09:09:00 AM -34.5592 -58.4156 147° Southeast  Level Estimated
Mon 09:10:00 AM -34.5592 -58.4156 33° Northeast  Level Estimated
Mon 09:11:00 AM -34.5592 -58.4156 147° Southeast  Level Estimated
Mon 09:12:00 AM -34.5592 -58.4156 33° Northeast  Level Estimated
Mon 09:13:00 AM -34.5592 -58.4156 147° Southeast  Level Estimated
Mon 09:14:00 AM -34.5592 -58.4156 33° Northeast  Level Estimated
Mon 09:15:00 AM -34.5592 -58.4156 147° Southeast  Level Estimated
Mon 09:16:00 AM -34.5592 -58.4156 33° Northeast  Level Estimated
Mon 09:17:00 AM -34.5592 -58.4156 147° Southeast  Level Estimated

Login

Don't have an account? Register now (free) for customized features, flight alerts, and more!